Terminal Aerodrome Forecast
Issued by NWS Grand Forks, ND

Home | Current Version | Previous Version | Text Only | Print | Product List | Glossary On
Versions: 1 2 3 4 5 6 7 8 9 10 11 12 13 14 15 16 17 18
000
FTUS43 KFGF 261124
TAFGFK
TAF
KGFK 261124Z 2612/2712 33008KT P6SM SCT070
     FM261700 30006KT P6SM SCT200
     FM262100 25006KT P6SM BKN120
     FM270500 22006KT P6SM BKN070
     FM270900 29004KT P6SM BKN040=

USA.gov is the U.S. government's official web portal to all federal, state and local government web resources and services.